createdAt,value
2023-05-21T00:00:01.593Z,12.73
2023-05-21T00:01:16.403Z,11.80
2023-05-21T00:02:19.969Z,7.53
2023-05-21T00:03:24.395Z,8.93
2023-05-21T00:04:29.865Z,9.60
2023-05-21T00:05:33.115Z,12.55
2023-05-21T00:06:36.282Z,11.77
2023-05-21T00:07:39.064Z,9.48
2023-05-21T00:08:43.107Z,9.48
2023-05-21T00:09:45.933Z,12.35
2023-05-21T00:10:48.739Z,8.60
2023-05-21T00:11:51.623Z,8.40
2023-05-21T00:12:54.394Z,9.35
2023-05-21T00:13:57.240Z,9.38
2023-05-21T00:15:01.539Z,10.60
2023-05-21T00:16:04.364Z,12.93
2023-05-21T00:17:07.416Z,13.50
2023-05-21T00:18:10.755Z,8.20
2023-05-21T00:19:13.754Z,9.07
2023-05-21T00:20:17.144Z,18.13
2023-05-21T00:21:23.229Z,10.57
2023-05-21T00:22:26.316Z,11.25
2023-05-21T00:23:32.773Z,9.70
2023-05-21T00:24:35.529Z,7.72
2023-05-21T00:25:38.353Z,7.60
2023-05-21T00:26:41.285Z,9.43
2023-05-21T00:27:44.387Z,10.38
2023-05-21T00:28:47.385Z,10.05
2023-05-21T00:29:50.265Z,11.95
2023-05-21T00:30:53.476Z,13.48
2023-05-21T00:31:56.800Z,9.77
2023-05-21T00:33:02.549Z,17.67
2023-05-21T00:34:05.732Z,24.65
2023-05-21T00:35:09.152Z,16.83
2023-05-21T00:36:14.546Z,9.98
2023-05-21T00:37:17.750Z,20.95
2023-05-21T00:38:20.479Z,8.38
2023-05-21T00:39:24.001Z,7.18
2023-05-21T00:40:26.773Z,10.63
2023-05-21T00:41:30.322Z,8.52
2023-05-21T00:42:33.814Z,10.95
2023-05-21T00:43:40.422Z,12.82
2023-05-21T00:44:43.203Z,12.60
2023-05-21T00:45:47.666Z,11.15
2023-05-21T00:46:53.761Z,16.20
2023-05-21T00:47:56.924Z,12.40
2023-05-21T00:49:00.831Z,8.63
2023-05-21T00:50:04.938Z,13.60
2023-05-21T00:51:07.845Z,12.73
2023-05-21T00:52:11.713Z,15.45
2023-05-21T00:53:15.637Z,12.55
2023-05-21T00:54:18.976Z,11.07
2023-05-21T00:55:21.960Z,9.68
2023-05-21T00:56:27.291Z,12.15
2023-05-21T00:57:33.376Z,13.25
2023-05-21T00:58:36.450Z,9.90
2023-05-21T00:59:39.420Z,10.82
2023-05-21T01:00:42.420Z,11.18
2023-05-21T01:01:45.915Z,9.30
2023-05-21T01:02:49.929Z,10.88
2023-05-21T01:03:57.558Z,15.07
2023-05-21T01:05:00.728Z,11.40
2023-05-21T01:06:04.780Z,13.02
2023-05-21T01:07:09.492Z,11.95
2023-05-21T01:08:12.923Z,10.55
2023-05-21T01:09:16.082Z,9.93
2023-05-21T01:10:18.836Z,12.18
2023-05-21T01:11:22.070Z,10.32
2023-05-21T01:12:24.985Z,9.02
2023-05-21T01:13:28.481Z,8.85
2023-05-21T01:14:31.862Z,10.52
2023-05-21T01:15:35.802Z,16.27
2023-05-21T01:16:41.042Z,13.32
2023-05-21T01:17:46.283Z,7.78
2023-05-21T01:18:50.276Z,14.27
2023-05-21T01:19:54.912Z,9.73
2023-05-21T01:20:57.636Z,9.18
2023-05-21T01:22:07.912Z,11.30
2023-05-21T01:23:11.858Z,8.27
2023-05-21T01:24:15.556Z,9.43
2023-05-21T01:25:18.517Z,9.25
2023-05-21T01:26:21.402Z,10.02
2023-05-21T01:27:24.273Z,7.15
2023-05-21T01:28:27.147Z,11.23
2023-05-21T01:29:29.925Z,12.43
2023-05-21T01:30:32.811Z,8.90
2023-05-21T01:31:56.867Z,12.50
2023-05-21T01:33:18.779Z,11.48
2023-05-21T01:34:27.292Z,11.93
2023-05-21T01:35:34.399Z,11.93
2023-05-21T01:36:44.189Z,8.93
2023-05-21T01:37:58.574Z,7.28
2023-05-21T01:39:08.010Z,8.88
2023-05-21T01:40:22.868Z,11.25
2023-05-21T01:41:26.641Z,8.43
2023-05-21T01:42:29.972Z,10.52
2023-05-21T01:43:35.734Z,9.27
2023-05-21T01:44:39.574Z,11.90
2023-05-21T01:45:44.097Z,6.63
2023-05-21T01:46:46.979Z,6.80
2023-05-21T01:47:50.703Z,13.00
2023-05-21T01:48:54.234Z,7.97
2023-05-21T01:49:57.096Z,9.50
2023-05-21T01:51:02.429Z,8.52
2023-05-21T01:52:05.523Z,9.82
2023-05-21T01:53:08.391Z,9.43
2023-05-21T01:54:11.250Z,9.80
2023-05-21T01:55:14.747Z,11.15
2023-05-21T01:56:17.745Z,13.45
2023-05-21T01:57:21.434Z,13.77
2023-05-21T01:58:24.322Z,7.40
2023-05-21T01:59:27.884Z,12.10
2023-05-21T02:00:32.629Z,10.20
2023-05-21T02:01:35.556Z,15.85
2023-05-21T02:02:38.490Z,11.40
2023-05-21T02:03:41.880Z,10.07
2023-05-21T02:04:46.286Z,8.52
2023-05-21T02:05:48.925Z,10.45
2023-05-21T02:06:51.999Z,6.07
2023-05-21T02:07:55.408Z,7.82
2023-05-21T02:08:58.611Z,6.72
2023-05-21T02:10:01.501Z,14.05
2023-05-21T02:11:04.582Z,7.13
2023-05-21T02:12:08.276Z,6.82
2023-05-21T02:13:11.171Z,9.23
2023-05-21T02:14:14.247Z,9.85
2023-05-21T02:15:19.329Z,7.32
2023-05-21T02:16:22.640Z,12.38
2023-05-21T02:17:26.430Z,14.85
2023-05-21T02:18:29.382Z,12.30
2023-05-21T02:19:32.625Z,7.00
2023-05-21T02:20:35.512Z,14.13
2023-05-21T02:21:38.323Z,7.03
2023-05-21T02:22:42.996Z,10.07
2023-05-21T02:23:45.789Z,8.27
2023-05-21T02:24:49.003Z,8.40
2023-05-21T02:25:51.821Z,7.63
2023-05-21T02:26:54.909Z,7.15
2023-05-21T02:27:57.751Z,9.32
2023-05-21T02:29:00.618Z,12.35
2023-05-21T02:30:08.045Z,8.45
2023-05-21T02:31:11.617Z,6.90
2023-05-21T02:32:14.836Z,6.90
2023-05-21T02:33:17.712Z,7.20
2023-05-21T02:34:21.093Z,7.85
2023-05-21T02:35:24.348Z,6.18
2023-05-21T02:36:28.891Z,5.88
2023-05-21T02:37:35.090Z,6.72
2023-05-21T02:38:44.122Z,10.63
2023-05-21T02:39:47.038Z,6.43
2023-05-21T02:40:54.018Z,6.82
2023-05-21T02:41:57.148Z,7.32
2023-05-21T02:43:00.614Z,8.07
2023-05-21T02:44:04.125Z,9.27
2023-05-21T02:45:13.923Z,6.65
2023-05-21T02:46:18.832Z,9.45
2023-05-21T02:47:23.740Z,10.07
2023-05-21T02:48:26.509Z,7.18
2023-05-21T02:49:29.276Z,8.73
2023-05-21T02:50:32.137Z,9.18
2023-05-21T02:51:35.810Z,7.68
2023-05-21T02:52:38.553Z,5.95
2023-05-21T02:53:41.441Z,7.50
2023-05-21T02:54:45.115Z,10.52
2023-05-21T02:55:48.691Z,10.48
2023-05-21T02:56:51.708Z,7.53
2023-05-21T02:57:54.538Z,8.77
2023-05-21T02:58:57.362Z,5.25
2023-05-21T03:00:00.157Z,7.88
2023-05-21T03:01:03.541Z,5.47
2023-05-21T03:02:07.551Z,6.90
2023-05-21T03:03:11.977Z,5.22
2023-05-21T03:04:17.333Z,5.22
2023-05-21T03:05:20.818Z,7.40
2023-05-21T03:06:23.658Z,7.80
2023-05-21T03:07:28.425Z,5.65
2023-05-21T03:08:31.993Z,6.38
2023-05-21T03:09:34.842Z,12.38
2023-05-21T03:10:38.071Z,6.50
2023-05-21T03:11:42.689Z,5.82
2023-05-21T03:12:47.192Z,10.38
2023-05-21T03:13:50.075Z,6.90
2023-05-21T03:14:53.349Z,5.43
2023-05-21T03:15:56.644Z,6.45
2023-05-21T03:17:00.620Z,4.97
2023-05-21T03:18:04.336Z,6.80
2023-05-21T03:19:07.904Z,7.40
2023-05-21T03:20:17.153Z,6.47
2023-05-21T03:21:22.790Z,9.88
2023-05-21T03:22:25.599Z,10.98
2023-05-21T03:23:28.527Z,8.90
2023-05-21T03:24:31.871Z,7.75
2023-05-21T03:25:36.791Z,5.35
2023-05-21T03:26:39.913Z,6.97
2023-05-21T03:27:43.216Z,5.47
2023-05-21T03:29:05.334Z,5.68
2023-05-21T03:30:12.824Z,7.97
2023-05-21T03:31:32.830Z,5.22
2023-05-21T03:33:03.568Z,5.65
2023-05-21T03:34:08.649Z,5.50
2023-05-21T03:35:12.996Z,8.32
2023-05-21T03:36:16.246Z,8.45
2023-05-21T03:37:19.103Z,5.80
2023-05-21T03:38:21.967Z,8.63
2023-05-21T03:39:24.760Z,6.45
2023-05-21T03:40:27.551Z,6.07
2023-05-21T03:41:30.754Z,7.60
2023-05-21T03:42:41.214Z,7.85
2023-05-21T03:43:44.712Z,5.30
2023-05-21T03:44:47.429Z,3.75
2023-05-21T03:46:13.368Z,3.65
2023-05-21T03:47:38.960Z,8.45
2023-05-21T03:48:44.096Z,7.68
2023-05-21T03:49:49.541Z,9.45
2023-05-21T03:50:52.683Z,8.20
2023-05-21T03:51:55.471Z,7.95
2023-05-21T03:52:59.367Z,6.38
2023-05-21T03:54:02.535Z,6.78
2023-05-21T03:55:06.130Z,6.80
2023-05-21T03:56:08.966Z,5.63
2023-05-21T03:57:12.032Z,5.50
2023-05-21T03:58:14.951Z,8.75
2023-05-21T03:59:17.863Z,7.40
2023-05-21T04:00:21.799Z,4.93
2023-05-21T04:01:24.619Z,6.90
2023-05-21T04:02:29.196Z,6.20
2023-05-21T04:03:36.754Z,11.00
2023-05-21T04:04:43.527Z,5.78
2023-05-21T04:05:46.853Z,6.28
2023-05-21T04:06:51.525Z,4.13
2023-05-21T04:07:54.397Z,9.75
2023-05-21T04:08:57.117Z,5.82
2023-05-21T04:10:00.048Z,7.38
2023-05-21T04:11:02.928Z,8.27
2023-05-21T04:12:06.028Z,7.63
2023-05-21T04:13:08.742Z,5.95
2023-05-21T04:14:11.613Z,6.07
2023-05-21T04:15:14.524Z,4.38
2023-05-21T04:16:19.280Z,4.80
2023-05-21T04:17:22.944Z,6.45
2023-05-21T04:18:26.882Z,5.70
2023-05-21T04:19:29.930Z,10.95
2023-05-21T04:20:32.937Z,4.45
2023-05-21T04:21:36.494Z,7.80
2023-05-21T04:22:43.040Z,9.15
2023-05-21T04:23:46.103Z,4.13
2023-05-21T04:24:59.670Z,4.57
2023-05-21T04:26:06.340Z,4.95
2023-05-21T04:27:10.191Z,3.95
2023-05-21T04:28:12.965Z,5.32
2023-05-21T04:29:21.335Z,5.50
2023-05-21T04:30:25.868Z,6.03
2023-05-21T04:31:31.382Z,6.45
2023-05-21T04:32:35.037Z,5.65
2023-05-21T04:33:38.126Z,7.13
2023-05-21T04:34:41.991Z,6.43
2023-05-21T04:35:46.407Z,8.20
2023-05-21T04:36:49.872Z,6.88
2023-05-21T04:37:54.982Z,5.97
2023-05-21T04:38:58.103Z,4.28
2023-05-21T04:40:01.753Z,12.32
2023-05-21T04:41:04.604Z,11.82
2023-05-21T04:42:10.985Z,6.95
2023-05-21T04:43:13.934Z,4.38
2023-05-21T04:44:16.698Z,6.22
2023-05-21T04:45:24.748Z,8.15
2023-05-21T04:46:28.844Z,3.47
2023-05-21T04:47:35.715Z,8.05
2023-05-21T04:48:41.060Z,7.13
2023-05-21T04:49:45.137Z,6.85
2023-05-21T04:50:47.948Z,2.53
2023-05-21T04:51:51.708Z,5.50
2023-05-21T04:52:54.855Z,4.22
2023-05-21T04:53:58.211Z,5.72
2023-05-21T04:55:01.415Z,5.43
2023-05-21T04:56:04.375Z,6.90
2023-05-21T04:57:07.172Z,13.05
2023-05-21T04:58:13.463Z,2.78
2023-05-21T04:59:17.004Z,6.00
2023-05-21T05:00:20.755Z,6.00
2023-05-21T05:01:23.963Z,6.13
2023-05-21T05:02:26.955Z,4.07
2023-05-21T05:03:30.370Z,6.55
2023-05-21T05:04:35.445Z,6.63
2023-05-21T05:05:38.551Z,3.67
2023-05-21T05:06:41.569Z,4.10
2023-05-21T05:07:45.135Z,3.72
2023-05-21T05:08:48.043Z,5.50
2023-05-21T05:09:51.946Z,4.78
2023-05-21T05:10:54.665Z,3.97
2023-05-21T05:11:57.412Z,6.60
2023-05-21T05:13:00.856Z,5.65
2023-05-21T05:14:05.171Z,3.33
2023-05-21T05:15:08.552Z,2.78
2023-05-21T05:16:13.079Z,5.45
2023-05-21T05:17:16.924Z,5.07
2023-05-21T05:18:20.073Z,5.13
2023-05-21T05:19:22.913Z,3.92
2023-05-21T05:20:25.788Z,2.85
2023-05-21T05:21:28.659Z,8.93
2023-05-21T05:22:31.524Z,2.65
2023-05-21T05:23:34.689Z,6.70
2023-05-21T05:24:37.513Z,2.30
2023-05-21T05:25:40.525Z,2.72
2023-05-21T05:26:44.666Z,5.63
2023-05-21T05:27:48.068Z,4.57
2023-05-21T05:28:51.001Z,8.48
2023-05-21T05:29:54.778Z,2.97
2023-05-21T05:30:57.836Z,3.08
2023-05-21T05:32:02.268Z,2.70
2023-05-21T05:33:05.370Z,6.50
2023-05-21T05:34:08.096Z,2.85
2023-05-21T05:35:11.390Z,2.60
2023-05-21T05:36:14.254Z,8.48
2023-05-21T05:37:17.227Z,3.30
2023-05-21T05:38:20.435Z,4.22
2023-05-21T05:39:23.162Z,4.65
2023-05-21T05:40:26.680Z,2.65
2023-05-21T05:41:30.015Z,4.13
2023-05-21T05:42:33.031Z,7.05
2023-05-21T05:43:39.759Z,2.65
2023-05-21T05:44:42.627Z,4.65
2023-05-21T05:45:45.571Z,4.35
2023-05-21T05:46:50.875Z,6.15
2023-05-21T05:47:53.615Z,4.68
2023-05-21T05:48:56.613Z,4.00
2023-05-21T05:49:59.909Z,4.30
2023-05-21T05:51:03.132Z,3.45
2023-05-21T05:52:07.281Z,1.48
2023-05-21T05:53:10.004Z,2.58
2023-05-21T05:54:13.550Z,2.72
2023-05-21T05:55:16.785Z,7.55
2023-05-21T05:56:19.868Z,7.43
2023-05-21T05:57:23.217Z,3.50
2023-05-21T05:58:30.191Z,4.40
2023-05-21T05:59:42.940Z,4.00
2023-05-21T06:00:47.563Z,4.93
2023-05-21T06:01:50.553Z,4.22
2023-05-21T06:02:53.614Z,8.43
2023-05-21T06:03:57.531Z,3.50
2023-05-21T06:05:01.081Z,7.25
2023-05-21T06:06:04.086Z,8.13
2023-05-21T06:07:07.748Z,3.55
2023-05-21T06:08:11.638Z,5.82
2023-05-21T06:09:14.946Z,1.63
2023-05-21T06:10:18.798Z,2.58
2023-05-21T06:11:21.709Z,8.63
2023-05-21T06:12:25.799Z,8.23
2023-05-21T06:13:30.133Z,4.68
2023-05-21T06:14:33.090Z,3.78
2023-05-21T06:15:36.491Z,4.93
2023-05-21T06:16:39.765Z,8.07
2023-05-21T06:17:43.048Z,3.50
2023-05-21T06:18:48.010Z,4.13
2023-05-21T06:19:50.979Z,12.05
2023-05-21T06:20:53.874Z,3.15
2023-05-21T06:21:58.753Z,2.67
2023-05-21T06:23:01.943Z,2.85
2023-05-21T06:24:05.002Z,2.58
2023-05-21T06:25:08.505Z,8.10
2023-05-21T06:26:11.702Z,2.78
2023-05-21T06:27:14.565Z,4.47
2023-05-21T06:28:17.938Z,3.30
2023-05-21T06:29:21.641Z,4.00
2023-05-21T06:30:24.509Z,2.95
2023-05-21T06:31:28.050Z,6.15
2023-05-21T06:32:31.264Z,1.77
2023-05-21T06:33:34.203Z,3.63
2023-05-21T06:34:37.229Z,3.58
2023-05-21T06:35:40.362Z,1.80
2023-05-21T06:36:46.676Z,3.33
2023-05-21T06:37:49.740Z,1.48
2023-05-21T06:38:52.834Z,3.40
2023-05-21T06:39:55.939Z,5.00
2023-05-21T06:40:59.146Z,6.10
2023-05-21T06:42:15.680Z,1.90
2023-05-21T06:43:37.110Z,2.60
2023-05-21T06:45:00.092Z,6.75
2023-05-21T06:46:07.034Z,7.47
2023-05-21T06:47:14.029Z,2.00
2023-05-21T06:48:19.607Z,4.32
2023-05-21T06:49:23.985Z,1.92
2023-05-21T06:50:27.446Z,2.20
2023-05-21T06:51:30.206Z,2.63
2023-05-21T06:52:33.052Z,2.83
2023-05-21T06:53:37.572Z,6.32
2023-05-21T06:54:40.734Z,4.10
2023-05-21T06:55:45.058Z,5.40
2023-05-21T06:56:55.612Z,1.25
2023-05-21T06:57:58.953Z,3.15
2023-05-21T06:59:01.834Z,5.30
2023-05-21T07:00:06.195Z,2.75
2023-05-21T07:01:11.888Z,2.03
2023-05-21T07:02:16.235Z,5.10
2023-05-21T07:03:19.195Z,3.90
2023-05-21T07:04:22.816Z,3.40
2023-05-21T07:05:25.582Z,1.95
2023-05-21T07:06:30.762Z,6.22
2023-05-21T07:07:35.035Z,5.88
2023-05-21T07:08:37.875Z,8.73
2023-05-21T07:09:40.701Z,2.58
2023-05-21T07:10:44.449Z,8.93
2023-05-21T07:11:47.653Z,4.28
2023-05-21T07:12:52.469Z,2.08
2023-05-21T07:14:00.355Z,1.52
2023-05-21T07:15:03.445Z,3.30
2023-05-21T07:16:06.764Z,2.05
2023-05-21T07:17:09.912Z,3.10
2023-05-21T07:18:13.431Z,4.78
2023-05-21T07:19:16.500Z,4.13
2023-05-21T07:20:20.223Z,3.78
2023-05-21T07:21:25.703Z,1.85
2023-05-21T07:22:29.106Z,2.92
2023-05-21T07:23:31.926Z,1.60
2023-05-21T07:24:34.822Z,2.35
2023-05-21T07:25:37.820Z,2.28
2023-05-21T07:26:41.181Z,3.65
2023-05-21T07:27:44.092Z,6.78
2023-05-21T07:28:46.980Z,1.65
2023-05-21T07:29:49.754Z,2.08
2023-05-21T07:30:53.004Z,3.95
2023-05-21T07:32:03.088Z,1.98
2023-05-21T07:33:06.137Z,4.40
2023-05-21T07:34:09.468Z,1.80
2023-05-21T07:35:14.614Z,2.03
2023-05-21T07:36:17.487Z,2.35
2023-05-21T07:37:21.399Z,4.22
2023-05-21T07:38:24.418Z,1.38
2023-05-21T07:39:27.197Z,4.00
2023-05-21T07:40:30.223Z,5.03
2023-05-21T07:41:33.293Z,1.65
2023-05-21T07:42:38.737Z,4.03
2023-05-21T07:43:41.996Z,5.53
2023-05-21T07:44:44.849Z,1.58
2023-05-21T07:45:47.791Z,5.05
2023-05-21T07:46:50.962Z,1.13
2023-05-21T07:47:53.915Z,7.15
2023-05-21T07:48:56.826Z,6.15
2023-05-21T07:49:59.494Z,2.28
2023-05-21T07:51:04.130Z,1.67
2023-05-21T07:52:07.635Z,1.85
2023-05-21T07:53:10.530Z,2.70
2023-05-21T07:54:13.626Z,1.38
2023-05-21T07:55:16.724Z,6.68
2023-05-21T07:56:19.931Z,5.50
2023-05-21T07:57:23.401Z,1.85
2023-05-21T07:58:39.479Z,1.30
2023-05-21T07:59:42.532Z,0.90
2023-05-21T08:00:47.295Z,1.38
2023-05-21T08:01:50.203Z,2.58
2023-05-21T08:02:53.430Z,1.85
2023-05-21T08:03:57.228Z,1.58
2023-05-21T08:05:01.857Z,1.00
2023-05-21T08:06:04.857Z,3.70
2023-05-21T08:07:09.922Z,7.05
2023-05-21T08:08:12.893Z,3.10
2023-05-21T08:09:15.944Z,4.30
2023-05-21T08:10:19.474Z,1.58
2023-05-21T08:11:24.266Z,4.05
2023-05-21T08:12:27.150Z,2.33
2023-05-21T08:13:30.193Z,1.83
2023-05-21T08:14:33.014Z,1.00
2023-05-21T08:15:36.453Z,1.73
2023-05-21T08:16:39.646Z,4.20
2023-05-21T08:17:43.007Z,1.27
2023-05-21T08:18:46.108Z,0.88
2023-05-21T08:19:49.055Z,11.30
2023-05-21T08:20:52.066Z,2.85
2023-05-21T08:21:56.446Z,5.47
2023-05-21T08:23:02.954Z,6.47
2023-05-21T08:24:13.364Z,4.60
2023-05-21T08:25:16.281Z,2.50
2023-05-21T08:26:19.453Z,1.52
2023-05-21T08:27:22.492Z,1.92
2023-05-21T08:28:25.473Z,4.45
2023-05-21T08:29:28.571Z,1.83
2023-05-21T08:30:31.387Z,4.97
2023-05-21T08:31:34.492Z,3.60
2023-05-21T08:32:37.775Z,1.27
2023-05-21T08:33:40.574Z,2.80
2023-05-21T08:34:43.411Z,1.67
2023-05-21T08:36:08.055Z,0.90
2023-05-21T08:37:23.788Z,6.00
2023-05-21T08:38:49.844Z,0.70
2023-05-21T08:41:07.310Z,0.93
2023-05-21T08:42:32.863Z,3.42
2023-05-21T08:44:46.574Z,2.78
2023-05-21T08:45:59.176Z,1.02
2023-05-21T08:47:08.325Z,0.85
2023-05-21T08:48:12.439Z,0.73
2023-05-21T08:49:17.677Z,4.82
2023-05-21T08:50:21.640Z,2.28
2023-05-21T08:51:24.527Z,3.42
2023-05-21T08:52:29.007Z,3.10
2023-05-21T08:53:34.125Z,8.20
2023-05-21T08:54:37.627Z,1.10
2023-05-21T08:55:43.523Z,2.47
2023-05-21T08:56:49.345Z,5.90
2023-05-21T08:57:54.584Z,1.77
2023-05-21T08:59:01.039Z,2.78
2023-05-21T09:00:08.646Z,6.38
2023-05-21T09:01:12.950Z,4.47
2023-05-21T09:02:20.274Z,4.75
2023-05-21T09:03:23.585Z,1.17
2023-05-21T09:04:28.319Z,2.58
2023-05-21T09:05:32.057Z,1.98
2023-05-21T09:06:35.502Z,2.22
2023-05-21T09:07:47.616Z,3.20
2023-05-21T09:09:28.248Z,1.98
2023-05-21T09:10:39.722Z,1.42
2023-05-21T09:11:43.815Z,1.67
2023-05-21T09:12:48.984Z,4.57
2023-05-21T09:13:52.480Z,1.42
2023-05-21T09:15:02.129Z,2.17
2023-05-21T09:16:13.046Z,2.75
2023-05-21T09:17:16.009Z,1.88
2023-05-21T09:18:22.897Z,4.25
2023-05-21T09:19:32.340Z,1.38
2023-05-21T09:20:36.411Z,1.00
2023-05-21T09:21:39.665Z,6.50
2023-05-21T09:22:51.751Z,1.25
2023-05-21T09:23:58.216Z,1.48
2023-05-21T09:25:04.989Z,3.08
2023-05-21T09:26:12.751Z,2.15
2023-05-21T09:27:17.397Z,1.70
2023-05-21T09:28:20.443Z,3.22
2023-05-21T09:29:23.540Z,1.48
2023-05-21T09:30:31.134Z,3.40
2023-05-21T09:31:36.928Z,1.55
2023-05-21T09:32:40.721Z,1.30
2023-05-21T09:33:50.104Z,2.83
2023-05-21T09:34:55.072Z,9.05
2023-05-21T09:35:58.112Z,1.20
2023-05-21T09:37:03.735Z,2.42
2023-05-21T09:38:09.669Z,2.83
2023-05-21T09:39:16.546Z,4.57
2023-05-21T09:40:22.197Z,3.20
2023-05-21T09:41:34.415Z,6.75
2023-05-21T09:42:41.339Z,3.38
2023-05-21T09:43:45.040Z,3.15
2023-05-21T09:44:49.012Z,1.77
2023-05-21T09:45:57.325Z,4.93
2023-05-21T09:47:03.709Z,4.35
2023-05-21T09:48:06.839Z,1.60
2023-05-21T09:49:26.863Z,1.15
2023-05-21T09:50:31.619Z,2.60
2023-05-21T09:51:34.417Z,8.48
2023-05-21T09:52:39.523Z,5.38
2023-05-21T09:54:04.380Z,3.15
2023-05-21T09:55:08.692Z,4.75
2023-05-21T09:56:11.746Z,1.85
2023-05-21T09:57:14.761Z,2.63
2023-05-21T09:58:17.646Z,3.53
2023-05-21T09:59:22.320Z,4.68
2023-05-21T10:00:28.064Z,0.80
2023-05-21T10:01:35.182Z,1.05
2023-05-21T10:02:38.528Z,4.38
2023-05-21T10:03:42.302Z,1.30
2023-05-21T10:04:45.991Z,3.63
2023-05-21T10:05:50.553Z,4.70
2023-05-21T10:06:53.296Z,3.65
2023-05-21T10:08:02.576Z,1.38
2023-05-21T10:09:11.119Z,1.45
2023-05-21T10:10:15.119Z,5.07
2023-05-21T10:11:18.232Z,0.80
2023-05-21T10:12:24.073Z,1.48
2023-05-21T10:13:27.815Z,1.88
2023-05-21T10:14:32.149Z,5.53
2023-05-21T10:15:51.408Z,1.40
2023-05-21T10:16:55.439Z,6.18
2023-05-21T10:17:58.212Z,2.05
2023-05-21T10:19:01.555Z,2.92
2023-05-21T10:20:06.051Z,1.08
2023-05-21T10:21:09.261Z,4.65
2023-05-21T10:22:12.211Z,4.05
2023-05-21T10:23:14.954Z,2.60
2023-05-21T10:24:17.661Z,5.15
2023-05-21T10:25:21.004Z,1.73
2023-05-21T10:26:26.488Z,3.85
2023-05-21T10:27:32.298Z,0.80
2023-05-21T10:28:36.761Z,4.47
2023-05-21T10:29:40.521Z,4.57
2023-05-21T10:30:44.210Z,2.92
2023-05-21T10:31:49.924Z,2.97
2023-05-21T10:32:53.446Z,0.70
2023-05-21T10:33:56.735Z,4.80
2023-05-21T10:35:01.695Z,2.03
2023-05-21T10:36:05.730Z,3.00
2023-05-21T10:37:13.223Z,1.00
2023-05-21T10:38:19.085Z,2.90
2023-05-21T10:39:22.690Z,1.73
2023-05-21T10:40:25.292Z,3.17
2023-05-21T10:41:28.513Z,1.90
2023-05-21T10:42:31.086Z,5.85
2023-05-21T10:43:58.179Z,1.70
2023-05-21T10:45:07.221Z,1.98
2023-05-21T10:46:47.169Z,3.40
2023-05-21T10:48:06.325Z,1.38
2023-05-21T10:49:24.159Z,1.17
2023-05-21T10:51:03.862Z,3.65
2023-05-21T10:52:49.077Z,0.80
2023-05-21T10:54:17.570Z,0.85
2023-05-21T10:55:27.225Z,1.80
2023-05-21T10:57:49.968Z,3.78
2023-05-21T10:58:58.641Z,6.80
2023-05-21T11:00:01.843Z,6.40
2023-05-21T11:01:05.002Z,1.25
2023-05-21T11:02:08.320Z,2.40
2023-05-21T11:03:13.217Z,2.03
2023-05-21T11:04:17.508Z,1.70
2023-05-21T11:05:56.220Z,5.38
2023-05-21T11:06:59.310Z,4.60
2023-05-21T11:08:02.581Z,0.93
2023-05-21T11:09:14.780Z,2.50
2023-05-21T11:10:40.649Z,4.38
2023-05-21T11:11:46.237Z,2.50
2023-05-21T11:13:14.991Z,4.47
2023-05-21T11:14:31.774Z,3.45
2023-05-21T11:15:58.943Z,2.35
2023-05-21T11:17:03.751Z,1.40
2023-05-21T11:18:09.691Z,3.15
2023-05-21T11:19:21.434Z,2.45
2023-05-21T11:20:34.727Z,3.45
2023-05-21T11:21:42.901Z,2.63
2023-05-21T11:22:47.117Z,2.78
2023-05-21T11:23:59.488Z,1.75
2023-05-21T11:25:03.429Z,1.80
2023-05-21T11:26:07.620Z,2.13
2023-05-21T11:27:10.541Z,2.03
2023-05-21T11:28:13.129Z,3.90
2023-05-21T11:29:16.412Z,1.40
2023-05-21T11:30:19.849Z,3.17
2023-05-21T11:31:27.085Z,4.20
2023-05-21T11:32:29.878Z,1.80
2023-05-21T11:33:34.122Z,3.85
2023-05-21T11:34:46.026Z,2.83
2023-05-21T11:35:58.797Z,3.28
2023-05-21T11:37:19.352Z,2.95
2023-05-21T11:38:22.163Z,7.72
2023-05-21T11:39:26.010Z,3.00
2023-05-21T11:40:30.645Z,7.35
2023-05-21T11:41:53.466Z,2.20
2023-05-21T11:42:56.900Z,4.22
2023-05-21T11:44:02.606Z,4.72
2023-05-21T11:45:08.640Z,2.42
2023-05-21T11:46:12.706Z,4.15
2023-05-21T11:47:16.627Z,2.95
2023-05-21T11:48:21.417Z,1.98
2023-05-21T11:49:24.371Z,3.38
2023-05-21T11:50:30.583Z,1.58
2023-05-21T11:51:33.473Z,5.53
2023-05-21T11:52:36.101Z,6.53
2023-05-21T11:53:39.414Z,2.17
2023-05-21T11:54:50.962Z,2.10
2023-05-21T11:55:57.617Z,2.45
2023-05-21T11:57:02.144Z,2.03
2023-05-21T11:58:05.640Z,1.63
2023-05-21T11:59:18.658Z,1.85
2023-05-21T12:00:22.067Z,2.13
2023-05-21T12:01:27.809Z,1.10
2023-05-21T12:02:33.716Z,6.20
2023-05-21T12:03:36.850Z,4.45
2023-05-21T12:04:39.647Z,1.58
2023-05-21T12:05:49.030Z,2.92
2023-05-21T12:06:52.151Z,3.55
2023-05-21T12:07:55.664Z,2.38
2023-05-21T12:08:59.146Z,5.38
2023-05-21T12:10:01.942Z,4.32
2023-05-21T12:11:04.912Z,3.08
2023-05-21T12:12:13.481Z,4.10
2023-05-21T12:13:16.204Z,1.90
2023-05-21T12:14:19.007Z,4.43
2023-05-21T12:15:22.824Z,3.65
2023-05-21T12:16:27.060Z,5.95
2023-05-21T12:17:31.828Z,2.65
2023-05-21T12:18:36.617Z,2.10
2023-05-21T12:19:39.799Z,3.45
2023-05-21T12:20:44.317Z,2.65
2023-05-21T12:21:47.142Z,2.53
2023-05-21T12:22:50.391Z,4.03
2023-05-21T12:23:53.279Z,3.38
2023-05-21T12:24:58.239Z,1.77
2023-05-21T12:26:00.865Z,2.40
2023-05-21T12:27:09.789Z,5.32
2023-05-21T12:28:12.628Z,6.68
2023-05-21T12:29:15.540Z,12.10
2023-05-21T12:30:18.371Z,6.97
2023-05-21T12:31:22.834Z,2.53
2023-05-21T12:32:29.305Z,5.65
2023-05-21T12:33:38.224Z,2.55
2023-05-21T12:34:51.411Z,3.28
2023-05-21T12:35:54.435Z,1.73
2023-05-21T12:36:57.204Z,2.50
2023-05-21T12:38:03.780Z,3.40
2023-05-21T12:39:11.176Z,6.18
2023-05-21T12:40:14.272Z,5.32
2023-05-21T12:41:17.815Z,2.88
2023-05-21T12:42:27.714Z,2.65
2023-05-21T12:43:33.938Z,6.18
2023-05-21T12:44:38.408Z,5.13
2023-05-21T12:45:41.801Z,1.92
2023-05-21T12:46:44.679Z,3.90
2023-05-21T12:47:56.486Z,2.13
2023-05-21T12:48:59.445Z,7.40
2023-05-21T12:50:04.152Z,2.88
2023-05-21T12:51:07.011Z,2.17
2023-05-21T12:52:12.401Z,2.90
2023-05-21T12:53:15.104Z,4.05
2023-05-21T12:54:17.730Z,3.50
2023-05-21T12:55:23.285Z,2.45
2023-05-21T12:56:26.208Z,3.50
2023-05-21T12:57:36.443Z,5.65
2023-05-21T12:58:39.906Z,1.90
2023-05-21T12:59:59.305Z,2.50
2023-05-21T13:01:03.877Z,4.43
2023-05-21T13:02:07.954Z,1.75
2023-05-21T13:03:11.413Z,1.38
2023-05-21T13:04:14.218Z,3.25
2023-05-21T13:05:18.232Z,1.70
2023-05-21T13:06:20.889Z,4.50
2023-05-21T13:07:24.550Z,4.43
2023-05-21T13:08:27.591Z,4.13
2023-05-21T13:09:30.214Z,6.97
2023-05-21T13:10:32.826Z,4.43
2023-05-21T13:11:35.525Z,2.40
2023-05-21T13:12:38.485Z,7.50
2023-05-21T13:13:41.109Z,2.85
2023-05-21T13:14:44.099Z,6.45
2023-05-21T13:15:46.879Z,5.97
2023-05-21T13:16:49.609Z,3.65
2023-05-21T13:17:54.325Z,4.50
2023-05-21T13:18:58.820Z,1.88
2023-05-21T13:20:20.207Z,2.72
2023-05-21T13:21:23.793Z,5.03
2023-05-21T13:22:26.471Z,3.47
2023-05-21T13:23:29.303Z,6.30
2023-05-21T13:24:31.991Z,1.73
2023-05-21T13:25:34.720Z,1.85
2023-05-21T13:26:37.576Z,6.97
2023-05-21T13:27:40.233Z,2.38
2023-05-21T13:28:43.034Z,4.22
2023-05-21T13:29:45.622Z,2.10
2023-05-21T13:30:48.428Z,1.27
2023-05-21T13:31:51.090Z,4.38
2023-05-21T13:32:54.026Z,3.50
2023-05-21T13:33:56.933Z,3.90
2023-05-21T13:34:59.587Z,2.65
2023-05-21T13:36:02.349Z,3.15
2023-05-21T13:37:05.191Z,1.67
2023-05-21T13:38:08.029Z,6.00
2023-05-21T13:39:10.791Z,8.63
2023-05-21T13:40:15.684Z,1.60
2023-05-21T13:41:18.733Z,4.10
2023-05-21T13:42:21.625Z,2.60
2023-05-21T13:43:24.256Z,2.58
2023-05-21T13:44:26.967Z,1.75
2023-05-21T13:45:29.731Z,5.00
2023-05-21T13:46:32.591Z,4.85
2023-05-21T13:47:39.188Z,7.35
2023-05-21T13:48:43.381Z,3.38
2023-05-21T13:49:45.948Z,1.98
2023-05-21T13:50:48.713Z,2.88
2023-05-21T13:51:51.920Z,3.03
2023-05-21T13:52:54.775Z,1.15
2023-05-21T13:53:57.499Z,1.27
2023-05-21T13:55:01.625Z,2.35
2023-05-21T13:56:05.004Z,5.25
2023-05-21T13:57:07.736Z,7.03
2023-05-21T13:58:10.557Z,3.97
2023-05-21T13:59:14.481Z,2.88
2023-05-21T14:00:17.240Z,2.08
2023-05-21T14:01:20.293Z,4.78
2023-05-21T14:02:23.253Z,4.07
2023-05-21T14:03:27.621Z,4.05
2023-05-21T14:04:30.654Z,1.40
2023-05-21T14:05:33.422Z,2.40
2023-05-21T14:06:36.283Z,4.75
2023-05-21T14:07:40.103Z,1.58
2023-05-21T14:08:43.115Z,1.70
2023-05-21T14:09:47.806Z,3.22
2023-05-21T14:10:50.576Z,5.00
2023-05-21T14:11:57.306Z,4.43
2023-05-21T14:13:07.787Z,2.05
2023-05-21T14:14:21.763Z,1.38
2023-05-21T14:15:24.476Z,2.22
2023-05-21T14:16:27.822Z,2.35
2023-05-21T14:17:42.280Z,7.93
2023-05-21T14:18:45.318Z,2.05
2023-05-21T14:19:48.247Z,2.70
2023-05-21T14:20:50.937Z,3.90
2023-05-21T14:21:53.711Z,2.55
2023-05-21T14:22:56.422Z,12.00
2023-05-21T14:23:59.255Z,2.55
2023-05-21T14:25:03.255Z,5.72
2023-05-21T14:26:06.150Z,3.55
2023-05-21T14:27:09.173Z,2.20